Time;durP1;ratioP1;P1;durP2;ratioP2;P2;SDS_P1;SDS_P2;PMS_P1;PMS_P2;Temp;Humidity;BMP_temperature;BMP_pressure;BME280_temperature;BME280_humidity;BME280_pressure;Samples;Min_cycle;Max_cycle;Signal;HPM_P1;HPM_P2
2023/10/29 00:01:26;;;;;;;1.83;0.97;;;;;;;5.50;100.00;97015.41;6229173;28;20211;-53
2023/10/29 00:04:35;;;;;;;3.13;1.13;;;;;;;5.37;100.00;97006.66;6220540;28;20225;-50
2023/10/29 00:07:37;;;;;;;2.10;0.70;;;;;;;5.34;100.00;97009.75;6225924;28;20198;-51
2023/10/29 00:10:39;;;;;;;1.63;0.87;;;;;;;5.34;100.00;96998.38;6234282;28;20250;-51
2023/10/29 00:13:41;;;;;;;0.80;0.80;;;;;;;5.33;100.00;97002.06;6227367;28;20199;-51
2023/10/29 00:16:44;;;;;;;1.03;0.90;;;;;;;5.26;100.00;97010.06;6236703;28;20211;-52
2023/10/29 00:19:46;;;;;;;2.33;0.90;;;;;;;5.24;100.00;97006.03;6225190;28;20825;-53
2023/10/29 00:22:48;;;;;;;1.23;1.00;;;;;;;5.18;100.00;97011.19;6218564;28;20206;-49
2023/10/29 00:25:50;;;;;;;0.77;0.63;;;;;;;5.21;100.00;97007.28;6229038;28;20191;-48
2023/10/29 00:28:52;;;;;;;3.07;1.10;;;;;;;5.09;100.00;97009.06;6234532;28;20298;-48
2023/10/29 00:31:54;;;;;;;2.23;0.90;;;;;;;4.99;100.00;97006.16;6227865;28;20543;-50
2023/10/29 00:34:57;;;;;;;2.50;1.00;;;;;;;4.91;100.00;97002.78;6225073;28;20243;-52
2023/10/29 00:37:59;;;;;;;2.67;0.70;;;;;;;4.89;100.00;97001.41;6237922;28;20677;-53
2023/10/29 00:41:02;;;;;;;1.00;0.90;;;;;;;4.88;100.00;97005.88;6220523;28;20278;-50
2023/10/29 00:44:04;;;;;;;3.53;1.03;;;;;;;4.91;100.00;97005.44;6222346;28;20202;-51
2023/10/29 00:47:06;;;;;;;1.07;0.90;;;;;;;4.82;100.00;96993.56;6225957;28;20274;-53
2023/10/29 00:50:09;;;;;;;3.60;0.97;;;;;;;4.96;100.00;97011.88;6221882;28;20202;-53
2023/10/29 00:53:11;;;;;;;1.97;1.17;;;;;;;4.77;100.00;96982.06;6204405;28;20322;-53
2023/10/29 00:56:15;;;;;;;1.53;0.90;;;;;;;4.80;100.00;97003.53;6224395;28;20217;-51
2023/10/29 00:59:17;;;;;;;1.27;0.87;;;;;;;4.80;100.00;97010.66;6231461;28;20226;-51
2023/10/29 01:02:20;;;;;;;2.87;1.13;;;;;;;4.72;100.00;97011.75;6229134;28;20194;-52
2023/10/29 01:05:22;;;;;;;0.80;0.70;;;;;;;4.69;100.00;97006.13;6217218;28;20199;-50
2023/10/29 01:08:26;;;;;;;1.10;1.00;;;;;;;4.64;100.00;97004.16;6236915;28;20336;-53
2023/10/29 01:11:28;;;;;;;1.33;0.87;;;;;;;4.58;100.00;97003.19;6230843;28;20288;-50
2023/10/29 01:14:31;;;;;;;2.83;1.17;;;;;;;4.54;100.00;96994.09;6224439;28;20198;-51
2023/10/29 01:17:33;;;;;;;2.27;0.90;;;;;;;4.49;100.00;96991.31;6225352;28;20222;-51
2023/10/29 01:20:36;;;;;;;3.60;1.10;;;;;;;4.48;100.00;96988.88;6227892;28;20680;-50
2023/10/29 01:23:38;;;;;;;0.97;0.77;;;;;;;4.42;100.00;96992.41;6226966;28;20204;-49
2023/10/29 01:26:40;;;;;;;1.43;0.80;;;;;;;4.44;100.00;96987.75;6217933;28;20214;-52
2023/10/29 01:29:43;;;;;;;2.60;0.90;;;;;;;4.51;100.00;96994.53;6232274;28;20567;-51
2023/10/29 01:32:45;;;;;;;1.43;0.90;;;;;;;4.57;100.00;96992.84;6229663;28;20860;-52
2023/10/29 01:35:47;;;;;;;1.27;0.83;;;;;;;4.55;100.00;96998.34;6217216;28;20215;-51
2023/10/29 01:38:49;;;;;;;2.57;0.83;;;;;;;4.57;100.00;97000.75;6216630;28;20659;-52
2023/10/29 01:41:55;;;;;;;0.83;0.83;;;;;;;4.51;100.00;96997.19;6215823;28;20198;-51
2023/10/29 01:44:58;;;;;;;1.30;0.87;;;;;;;4.39;100.00;96989.19;6237975;28;20627;-52
2023/10/29 01:48:00;;;;;;;1.50;0.93;;;;;;;4.34;100.00;96980.34;6221068;28;20199;-49
2023/10/29 01:51:06;;;;;;;1.30;0.80;;;;;;;4.32;100.00;96979.72;6237398;28;20189;-52
2023/10/29 01:54:08;;;;;;;1.33;0.77;;;;;;;4.28;100.00;96995.19;6223767;28;20674;-50
2023/10/29 01:57:10;;;;;;;0.83;0.83;;;;;;;4.24;100.00;96993.22;6217352;28;20610;-50
2023/10/29 02:00:13;;;;;;;1.10;0.90;;;;;;;4.26;100.00;96999.06;6232664;28;20239;-49
2023/10/29 02:03:15;;;;;;;1.13;0.80;;;;;;;4.30;100.00;96995.78;6231860;28;20327;-49
2023/10/29 02:06:18;;;;;;;1.87;0.93;;;;;;;4.33;100.00;96994.53;6224369;28;20252;-51
2023/10/29 02:09:20;;;;;;;0.60;0.60;;;;;;;4.31;100.00;96994.75;6225520;28;20213;-51
2023/10/29 02:12:23;;;;;;;4.30;1.00;;;;;;;4.26;100.00;96991.97;6229608;28;20198;-49
2023/10/29 02:15:28;;;;;;;1.17;0.80;;;;;;;4.22;100.00;97000.53;6228089;28;20754;-49
2023/10/29 02:18:30;;;;;;;1.93;1.10;;;;;;;4.24;100.00;96998.50;6220215;28;20203;-51
2023/10/29 02:21:34;;;;;;;1.33;0.80;;;;;;;4.18;100.00;97000.16;6219417;28;20205;-50
2023/10/29 02:24:36;;;;;;;1.93;0.80;;;;;;;4.11;100.00;96997.59;6229617;28;20599;-52
2023/10/29 02:27:38;;;;;;;0.83;0.60;;;;;;;4.10;100.00;97001.25;6223033;28;20247;-50
2023/10/29 02:30:40;;;;;;;3.47;0.90;;;;;;;3.98;100.00;96994.25;6228579;28;20563;-49
2023/10/29 02:33:49;;;;;;;0.93;0.80;;;;;;;3.92;100.00;97005.66;6229368;28;20193;-50
2023/10/29 02:36:51;;;;;;;1.93;0.80;;;;;;;3.95;100.00;97002.63;6228241;28;20228;-49
2023/10/29 02:39:53;;;;;;;0.70;0.60;;;;;;;3.98;100.00;96997.69;6223961;28;20207;-51
2023/10/29 02:42:55;;;;;;;0.70;0.57;;;;;;;3.93;100.00;96996.72;6230510;28;20696;-49
2023/10/29 02:45:58;;;;;;;0.80;0.57;;;;;;;3.89;100.00;96985.81;6212805;28;20197;-51
2023/10/29 02:49:00;;;;;;;3.00;0.83;;;;;;;3.92;100.00;96984.59;6222731;28;20192;-50
2023/10/29 02:52:02;;;;;;;0.57;0.50;;;;;;;3.91;100.00;96989.06;6234102;28;20200;-51
2023/10/29 02:55:06;;;;;;;3.80;0.43;;;;;;;3.86;100.00;96992.34;6227719;28;20572;-50
2023/10/29 02:58:09;;;;;;;0.50;0.50;;;;;;;3.88;100.00;96990.28;6219807;28;20711;-50
2023/10/29 03:01:15;;;;;;;1.03;0.70;;;;;;;3.87;100.00;96993.13;6227545;28;20289;-49
2023/10/29 03:04:18;;;;;;;0.60;0.50;;;;;;;3.84;100.00;96989.13;6233321;28;20207;-50
2023/10/29 03:07:20;;;;;;;3.57;1.23;;;;;;;3.80;100.00;96998.47;6220134;28;20185;-49
2023/10/29 03:10:22;;;;;;;2.30;0.60;;;;;;;3.79;100.00;96998.66;6224857;28;20719;-53
2023/10/29 03:13:25;;;;;;;2.60;0.90;;;;;;;3.82;100.00;97001.69;6234473;28;20608;-55
2023/10/29 03:16:27;;;;;;;0.90;0.70;;;;;;;3.88;100.00;96992.09;6231753;28;20201;-51
2023/10/29 03:19:29;;;;;;;1.00;0.80;;;;;;;3.89;100.00;96993.72;6224935;28;20196;-51
2023/10/29 03:22:32;;;;;;;2.90;0.83;;;;;;;3.86;100.00;96988.91;6222726;28;20291;-53
2023/10/29 03:25:35;;;;;;;1.20;0.77;;;;;;;3.83;100.00;97002.50;6234657;28;20709;-54
2023/10/29 03:28:39;;;;;;;3.83;0.70;;;;;;;3.84;100.00;96988.28;6231172;28;20694;-51
2023/10/29 03:31:41;;;;;;;0.50;0.50;;;;;;;3.85;100.00;96992.56;6224614;28;20554;-52
2023/10/29 03:34:44;;;;;;;0.67;0.60;;;;;;;3.87;100.00;96985.22;6237329;28;20195;-52
2023/10/29 03:37:46;;;;;;;0.90;0.50;;;;;;;3.88;100.00;96984.19;6230152;28;20216;-52
2023/10/29 03:40:48;;;;;;;0.80;0.43;;;;;;;3.91;100.00;96977.72;6221505;28;20607;-51
2023/10/29 03:43:51;;;;;;;0.50;0.40;;;;;;;3.93;100.00;96984.38;6229896;28;20204;-53
2023/10/29 03:46:53;;;;;;;0.60;0.60;;;;;;;3.93;100.00;96981.72;6225756;28;20201;-49
2023/10/29 03:49:55;;;;;;;0.90;0.57;;;;;;;3.95;100.00;96976.25;6221671;28;20204;-52
2023/10/29 03:52:58;;;;;;;1.23;0.63;;;;;;;3.88;100.00;96971.03;6229334;28;20198;-49
2023/10/29 03:56:01;;;;;;;2.00;0.60;;;;;;;3.78;100.00;96962.81;6225155;28;20213;-52
2023/10/29 03:59:05;;;;;;;0.80;0.50;;;;;;;3.59;100.00;96954.06;6219009;28;20300;-52
2023/10/29 04:02:08;;;;;;;0.57;0.50;;;;;;;3.57;100.00;96964.81;6221402;28;20197;-51
2023/10/29 04:05:10;;;;;;;1.87;1.10;;;;;;;3.50;100.00;96969.34;6229351;28;20212;-49
2023/10/29 04:08:13;;;;;;;1.90;0.87;;;;;;;3.36;100.00;96949.38;6230822;28;20668;-51
2023/10/29 04:11:15;;;;;;;0.90;0.60;;;;;;;3.44;100.00;96964.09;6227670;28;20210;-50
2023/10/29 04:14:17;;;;;;;1.60;0.90;;;;;;;3.51;100.00;96973.56;6224324;28;20221;-50
2023/10/29 04:17:19;;;;;;;1.33;0.77;;;;;;;3.58;100.00;96976.16;6233384;28;20208;-51
2023/10/29 04:20:23;;;;;;;1.47;0.77;;;;;;;3.65;100.00;96979.56;6225784;28;20201;-52
2023/10/29 04:23:25;;;;;;;0.90;0.73;;;;;;;3.61;100.00;96988.91;6228928;28;20193;-48
2023/10/29 04:26:27;;;;;;;2.20;0.80;;;;;;;3.58;100.00;96997.22;6237594;28;20244;-52
2023/10/29 04:29:30;;;;;;;1.37;0.87;;;;;;;3.58;100.00;97000.66;6224387;28;20194;-49
2023/10/29 04:32:32;;;;;;;2.50;0.83;;;;;;;3.52;100.00;96998.06;6223070;28;20231;-52
2023/10/29 04:35:34;;;;;;;1.23;0.70;;;;;;;3.44;100.00;96993.06;6234710;28;20288;-49
2023/10/29 04:38:36;;;;;;;0.57;0.50;;;;;;;3.34;100.00;96988.25;6234682;28;20200;-52
2023/10/29 04:41:39;;;;;;;2.83;0.80;;;;;;;3.32;100.00;96987.69;6228406;28;20262;-52
2023/10/29 04:44:42;;;;;;;0.90;0.70;;;;;;;3.23;100.00;96975.78;6225659;28;20418;-49
2023/10/29 04:47:44;;;;;;;1.70;0.80;;;;;;;3.32;100.00;96977.97;6232068;28;20719;-50
2023/10/29 04:50:47;;;;;;;0.70;0.70;;;;;;;3.26;100.00;96962.22;6230900;28;20281;-51
2023/10/29 04:53:49;;;;;;;1.10;0.70;;;;;;;3.25;100.00;96963.22;6221987;28;20201;-51
2023/10/29 04:56:51;;;;;;;2.53;0.80;;;;;;;3.27;100.00;96950.66;6230421;28;20208;-51
2023/10/29 04:59:53;;;;;;;3.33;0.90;;;;;;;3.29;100.00;96954.69;6227688;28;20235;-51
2023/10/29 05:02:55;;;;;;;0.67;0.57;;;;;;;3.33;100.00;96947.16;6227010;28;20216;-49
2023/10/29 05:05:57;;;;;;;1.83;1.00;;;;;;;3.32;100.00;96946.38;6227862;28;20322;-51
2023/10/29 05:09:00;;;;;;;0.97;0.80;;;;;;;3.33;100.00;96936.66;6234163;28;20196;-53
2023/10/29 05:12:03;;;;;;;0.60;0.60;;;;;;;3.34;100.00;96941.69;6212408;28;20259;-52
2023/10/29 05:15:05;;;;;;;0.90;0.90;;;;;;;3.34;100.00;96944.31;6226064;28;20335;-51
2023/10/29 05:18:07;;;;;;;1.37;1.10;;;;;;;3.32;100.00;96941.09;6232235;28;20216;-52
2023/10/29 05:21:10;;;;;;;3.47;1.00;;;;;;;3.29;100.00;96944.16;6221966;28;20240;-51
2023/10/29 05:24:12;;;;;;;0.80;0.80;;;;;;;3.28;100.00;96947.81;6216982;28;20201;-51
2023/10/29 05:27:14;;;;;;;1.13;0.90;;;;;;;3.28;100.00;96957.53;6224768;28;20200;-51
2023/10/29 05:30:16;;;;;;;0.90;0.90;;;;;;;3.25;100.00;96961.41;6234895;28;20204;-52
2023/10/29 05:33:19;;;;;;;2.00;0.93;;;;;;;3.17;100.00;96958.22;6229928;28;20191;-50
2023/10/29 05:36:22;;;;;;;1.73;1.00;;;;;;;3.23;100.00;96965.25;6222189;28;20676;-51
2023/10/29 05:39:24;;;;;;;1.83;1.17;;;;;;;3.18;100.00;96968.53;6236743;28;20204;-51
2023/10/29 05:42:27;;;;;;;3.03;0.90;;;;;;;3.16;100.00;96962.69;6227023;28;20192;-50
2023/10/29 05:45:29;;;;;;;5.77;2.50;;;;;;;3.13;100.00;96964.94;6219863;28;20286;-50
2023/10/29 05:48:31;;;;;;;4.37;3.00;;;;;;;3.10;100.00;96958.25;6231244;28;20267;-49
2023/10/29 05:51:33;;;;;;;2.50;1.33;;;;;;;3.16;100.00;96959.25;6228497;28;20190;-51
2023/10/29 05:54:35;;;;;;;2.30;1.00;;;;;;;3.17;100.00;96964.28;6226397;28;20327;-51
2023/10/29 05:57:37;;;;;;;1.20;1.10;;;;;;;3.20;100.00;96960.41;6218856;28;20269;-51
2023/10/29 06:00:39;;;;;;;1.53;1.20;;;;;;;3.25;100.00;96963.22;6232134;28;20227;-49
2023/10/29 06:03:42;;;;;;;1.00;0.90;;;;;;;3.30;100.00;96963.38;6228361;28;20208;-52
2023/10/29 06:06:44;;;;;;;0.77;0.77;;;;;;;3.35;100.00;96959.13;6222170;28;20193;-54
2023/10/29 06:09:47;;;;;;;3.60;1.30;;;;;;;3.46;100.00;96965.50;6235262;28;20206;-54
2023/10/29 06:12:49;;;;;;;1.83;1.20;;;;;;;3.52;100.00;96964.66;6217958;28;20321;-53
2023/10/29 06:15:51;;;;;;;2.20;1.17;;;;;;;3.56;100.00;96959.78;6220452;28;20201;-51
2023/10/29 06:18:53;;;;;;;1.60;1.17;;;;;;;3.57;100.00;96962.19;6224280;28;20315;-52
2023/10/29 06:21:55;;;;;;;3.20;1.40;;;;;;;3.61;100.00;96963.38;6230847;28;20203;-53
2023/10/29 06:24:58;;;;;;;2.83;1.20;;;;;;;3.60;100.00;96955.69;6215502;28;20238;-52
2023/10/29 06:28:00;;;;;;;1.73;1.10;;;;;;;3.51;100.00;96944.59;6219586;28;20193;-52
2023/10/29 06:31:02;;;;;;;4.77;1.20;;;;;;;3.63;100.00;96957.88;6230416;28;20742;-51
2023/10/29 06:34:04;;;;;;;1.30;1.20;;;;;;;3.67;100.00;96969.59;6225974;28;20405;-50
2023/10/29 06:37:06;;;;;;;1.20;1.10;;;;;;;3.78;100.00;96989.97;6222155;28;20214;-52
2023/10/29 06:40:09;;;;;;;0.80;0.80;;;;;;;3.70;100.00;96952.56;6230295;28;20199;-50
2023/10/29 06:43:11;;;;;;;2.13;1.53;;;;;;;3.97;100.00;96984.75;6236010;28;21001;-48
2023/10/29 06:46:17;;;;;;;0.83;0.77;;;;;;;4.01;100.00;96984.09;6230989;28;20205;-51
2023/10/29 06:49:19;;;;;;;2.00;1.13;;;;;;;4.07;100.00;96985.84;6227209;28;20277;-47
2023/10/29 06:52:21;;;;;;;2.97;1.10;;;;;;;4.16;100.00;96988.22;6228167;28;20616;-49
2023/10/29 06:55:23;;;;;;;1.30;1.20;;;;;;;4.23;100.00;96965.22;6230961;28;20198;-48
2023/10/29 06:58:25;;;;;;;1.77;1.17;;;;;;;4.26;100.00;96956.88;6224672;28;20217;-47
2023/10/29 07:01:27;;;;;;;1.10;1.00;;;;;;;4.29;100.00;96957.25;6237146;28;20333;-47
2023/10/29 07:04:29;;;;;;;1.10;1.00;;;;;;;4.35;100.00;96966.94;6229848;28;20293;-47
2023/10/29 07:07:34;;;;;;;1.87;1.30;;;;;;;4.42;100.00;96973.94;6228907;28;20248;-45
2023/10/29 07:10:36;;;;;;;1.07;0.97;;;;;;;4.48;100.00;96967.78;6230250;28;20289;-49
2023/10/29 07:13:38;;;;;;;1.93;1.10;;;;;;;4.50;100.00;96971.84;6231115;28;20663;-46
2023/10/29 07:16:44;;;;;;;2.17;1.30;;;;;;;4.50;100.00;96963.91;6227389;28;20672;-48
2023/10/29 07:19:47;;;;;;;2.50;1.27;;;;;;;4.53;100.00;96960.03;6222058;28;20194;-48
2023/10/29 07:22:49;;;;;;;1.17;1.07;;;;;;;4.60;100.00;96968.69;6239268;28;20199;-46
2023/10/29 07:25:51;;;;;;;2.33;1.00;;;;;;;4.66;100.00;96976.50;6230225;28;20198;-46
2023/10/29 07:28:53;;;;;;;1.47;1.10;;;;;;;4.76;100.00;96983.09;6226774;28;20580;-47
2023/10/29 07:31:56;;;;;;;1.37;1.10;;;;;;;4.83;100.00;96984.63;6235554;28;20657;-45
2023/10/29 07:34:59;;;;;;;1.73;1.27;;;;;;;4.89;100.00;96986.38;6232854;28;20207;-50
2023/10/29 07:38:01;;;;;;;2.10;1.20;;;;;;;4.88;100.00;96971.59;6231023;28;20663;-49
2023/10/29 07:41:03;;;;;;;1.93;1.30;;;;;;;5.08;100.00;96979.25;6228631;28;20197;-48
2023/10/29 07:44:05;;;;;;;1.70;1.10;;;;;;;5.17;100.00;96982.34;6237623;28;20540;-48
2023/10/29 07:47:11;;;;;;;1.07;1.00;;;;;;;5.25;100.00;96978.59;6226260;28;20195;-48
2023/10/29 07:50:13;;;;;;;1.03;0.93;;;;;;;5.30;100.00;96979.53;6218732;28;20210;-49
2023/10/29 07:53:15;;;;;;;2.83;1.27;;;;;;;5.35;100.00;96979.66;6237782;28;20195;-49
2023/10/29 07:56:19;;;;;;;0.93;0.90;;;;;;;5.48;100.00;96991.06;6231951;28;20686;-48
2023/10/29 07:59:21;;;;;;;3.40;2.10;;;;;;;5.58;100.00;96996.59;6228053;28;20226;-50
2023/10/29 08:02:23;;;;;;;4.67;3.17;;;;;;;5.75;100.00;96988.81;6225938;28;20324;-50
2023/10/29 08:05:25;;;;;;;4.63;3.70;;;;;;;5.87;100.00;96989.66;6233090;28;20200;-50
2023/10/29 08:08:27;;;;;;;7.10;5.27;;;;;;;6.04;100.00;96981.88;6228853;28;20878;-52
2023/10/29 08:11:30;;;;;;;8.80;7.63;;;;;;;6.19;100.00;96996.22;6213670;28;20604;-50
2023/10/29 08:14:32;;;;;;;13.57;11.40;;;;;;;6.51;100.00;97003.81;6233763;28;20202;-47
2023/10/29 08:17:34;;;;;;;12.87;10.43;;;;;;;6.76;100.00;97006.19;6223560;28;20223;-47
2023/10/29 08:20:37;;;;;;;14.37;10.73;;;;;;;6.84;100.00;97000.50;6222859;28;20891;-51
2023/10/29 08:23:39;;;;;;;10.63;9.13;;;;;;;6.93;100.00;97007.03;6232893;28;20214;-52
2023/10/29 08:26:41;;;;;;;10.60;8.87;;;;;;;6.86;100.00;96997.63;6221011;28;20202;-51
2023/10/29 08:29:44;;;;;;;9.67;8.33;;;;;;;6.96;100.00;97016.38;6205278;28;20235;-52
2023/10/29 08:32:47;;;;;;;11.23;8.00;;;;;;;7.03;100.00;97016.22;6217413;28;20203;-51
2023/10/29 08:35:49;;;;;;;12.47;8.63;;;;;;;7.06;100.00;97011.28;6238307;28;20195;-52
2023/10/29 08:38:51;;;;;;;16.07;9.30;;;;;;;7.09;100.00;97005.50;6231618;28;20205;-50
2023/10/29 08:41:53;;;;;;;9.80;7.73;;;;;;;7.11;100.00;97007.91;6225334;28;20205;-50
2023/10/29 08:44:57;;;;;;;11.73;8.63;;;;;;;7.09;100.00;96983.50;6235244;28;20678;-47
2023/10/29 08:47:59;;;;;;;17.33;9.23;;;;;;;7.31;100.00;97004.84;6234307;28;20201;-49
2023/10/29 08:51:01;;;;;;;9.77;7.83;;;;;;;7.36;100.00;97007.59;6214086;28;20207;-48
2023/10/29 08:54:04;;;;;;;26.23;9.80;;;;;;;7.29;100.00;96978.59;6215771;28;20546;-49
2023/10/29 08:57:06;;;;;;;26.13;9.20;;;;;;;7.41;100.00;97000.53;6234854;28;20726;-52
2023/10/29 09:00:09;;;;;;;25.10;9.83;;;;;;;7.44;100.00;96986.00;6219558;28;20783;-49
2023/10/29 09:03:13;;;;;;;30.17;11.03;;;;;;;7.31;100.00;96970.41;6208469;28;20276;-49
2023/10/29 09:06:15;;;;;;;31.07;10.23;;;;;;;7.41;100.00;96992.59;6228599;28;20193;-48
2023/10/29 09:09:18;;;;;;;23.03;10.20;;;;;;;7.40;100.00;96990.97;6228615;28;20246;-50
2023/10/29 09:12:23;;;;;;;20.50;9.67;;;;;;;7.41;100.00;96986.47;6224699;28;20188;-50
2023/10/29 09:15:25;;;;;;;33.33;10.57;;;;;;;7.43;100.00;96985.19;6231221;28;20198;-51
2023/10/29 09:18:28;;;;;;;18.23;10.13;;;;;;;7.46;100.00;96983.91;6233142;28;20216;-51
2023/10/29 09:21:31;;;;;;;19.00;11.87;;;;;;;7.47;100.00;96974.91;6227000;28;20204;-53
2023/10/29 09:24:33;;;;;;;11.40;9.43;;;;;;;7.50;100.00;96979.75;6229205;28;20212;-54
2023/10/29 09:27:36;;;;;;;9.93;8.93;;;;;;;7.55;100.00;96971.09;6237056;28;20192;-49
2023/10/29 09:30:38;;;;;;;9.50;8.10;;;;;;;7.64;100.00;96974.94;6229379;28;20610;-53
2023/10/29 09:33:41;;;;;;;25.97;10.83;;;;;;;7.65;100.00;96993.25;6221636;28;20193;-53
2023/10/29 09:36:43;;;;;;;27.80;11.30;;;;;;;7.62;100.00;96995.56;6234147;28;20283;-50
2023/10/29 09:39:45;;;;;;;31.07;12.37;;;;;;;7.62;100.00;96987.63;6233631;28;20854;-50
2023/10/29 09:42:53;;;;;;;11.87;10.20;;;;;;;7.68;100.00;97000.72;6216817;28;20204;-53
2023/10/29 09:45:56;;;;;;;14.13;11.40;;;;;;;7.76;100.00;96991.56;6223875;28;20189;-53
2023/10/29 09:49:00;;;;;;;16.53;11.80;;;;;;;7.73;100.00;96984.91;6222498;28;20195;-50
2023/10/29 09:52:02;;;;;;;11.90;10.70;;;;;;;7.83;100.00;96999.34;6222183;28;20196;-51
2023/10/29 09:55:08;;;;;;;14.27;11.13;;;;;;;7.81;100.00;96983.69;6217495;28;20201;-51
2023/10/29 09:58:11;;;;;;;10.80;9.50;;;;;;;7.90;100.00;96995.53;6231746;28;20209;-53
2023/10/29 10:01:14;;;;;;;12.90;11.40;;;;;;;8.04;100.00;96993.34;6225200;28;20249;-48
2023/10/29 10:04:16;;;;;;;12.37;10.50;;;;;;;8.07;100.00;96979.59;6219357;28;20200;-49
2023/10/29 10:07:21;;;;;;;13.20;11.50;;;;;;;8.21;100.00;96988.81;6226196;28;20193;-51
2023/10/29 10:10:44;;;;;;;12.10;10.60;;;;;;;8.32;100.00;96987.09;6222528;28;20208;-52
2023/10/29 10:13:47;;;;;;;12.83;10.93;;;;;;;8.46;100.00;96982.28;6222783;28;20710;-49
2023/10/29 10:17:07;;;;;;;14.00;11.73;;;;;;;8.50;100.00;96978.91;6226598;28;20192;-51
2023/10/29 10:20:11;;;;;;;15.90;12.00;;;;;;;8.56;100.00;96968.34;6232166;28;20232;-51
2023/10/29 10:23:14;;;;;;;13.30;10.50;;;;;;;8.59;100.00;96960.69;6221260;28;20204;-53
2023/10/29 10:26:26;;;;;;;12.07;10.80;;;;;;;8.57;100.00;96956.69;6217483;28;20196;-50
2023/10/29 10:29:32;;;;;;;10.87;9.77;;;;;;;8.55;100.00;96953.47;6224072;28;20194;-53
2023/10/29 10:32:34;;;;;;;11.83;10.63;;;;;;;8.50;100.00;96960.31;6224581;28;20654;-54
2023/10/29 10:35:44;;;;;;;12.70;10.83;;;;;;;8.48;100.00;96957.13;6210961;28;20213;-52
2023/10/29 10:38:52;;;;;;;11.30;9.47;;;;;;;8.47;100.00;96955.53;6228033;28;20872;-53
2023/10/29 10:41:55;;;;;;;10.93;9.83;;;;;;;8.58;100.00;96955.66;6222377;28;20585;-49
2023/10/29 10:45:03;;;;;;;10.90;9.77;;;;;;;8.68;100.00;96961.09;6213214;28;20707;-51
2023/10/29 10:48:05;;;;;;;11.00;9.67;;;;;;;8.71;100.00;96957.91;6228498;28;20703;-50
2023/10/29 10:51:12;;;;;;;10.33;9.20;;;;;;;8.71;100.00;96953.41;6234042;28;20193;-50
2023/10/29 10:54:18;;;;;;;10.30;9.20;;;;;;;8.64;100.00;96949.34;6222635;28;20548;-51
2023/10/29 10:57:21;;;;;;;10.10;9.10;;;;;;;8.81;100.00;96950.06;6221738;28;20323;-51
2023/10/29 11:00:23;;;;;;;10.33;8.63;;;;;;;8.89;100.00;96943.53;6229070;28;20239;-50
2023/10/29 11:03:30;;;;;;;12.43;10.40;;;;;;;8.81;100.00;96910.22;6223696;28;20188;-51
2023/10/29 11:06:38;;;;;;;11.20;9.60;;;;;;;8.94;100.00;96928.44;6210446;28;20212;-50
2023/10/29 11:09:40;;;;;;;12.50;9.90;;;;;;;8.96;100.00;96933.50;6228077;28;20202;-48
2023/10/29 11:12:42;;;;;;;10.37;9.13;;;;;;;9.00;100.00;96931.94;6223898;28;20258;-49
2023/10/29 11:15:49;;;;;;;11.03;8.70;;;;;;;9.06;100.00;96925.63;6220748;28;20224;-47
2023/10/29 11:18:51;;;;;;;10.43;9.33;;;;;;;9.04;100.00;96903.84;6220334;28;20699;-50
2023/10/29 11:22:31;;;;;;;11.37;10.03;;;;;;;9.05;100.00;96884.97;6225055;28;20189;-48
2023/10/29 11:25:33;;;;;;;11.30;9.43;;;;;;;9.11;100.00;96903.63;6206143;28;20198;-48
2023/10/29 11:28:35;;;;;;;11.17;8.60;;;;;;;9.15;100.00;96889.59;6220842;28;20186;-51
2023/10/29 11:31:38;;;;;;;8.07;7.00;;;;;;;9.23;100.00;96886.47;6227789;28;20207;-52
2023/10/29 11:34:40;;;;;;;9.03;6.47;;;;;;;9.38;100.00;96882.34;6228649;28;20193;-50
2023/10/29 11:37:43;;;;;;;6.73;6.00;;;;;;;9.52;100.00;96887.00;6228432;28;20216;-51
2023/10/29 11:40:45;;;;;;;7.50;5.73;;;;;;;9.68;100.00;96885.25;6224517;28;20213;-52
2023/10/29 11:44:36;;;;;;;5.53;4.73;;;;;;;9.84;100.00;96880.81;6229924;28;20225;-52
2023/10/29 11:48:08;;;;;;;5.70;5.10;;;;;;;9.96;100.00;96891.28;6213058;28;20211;-49
2023/10/29 11:51:20;;;;;;;6.30;4.70;;;;;;;10.15;100.00;96908.44;6205015;28;20203;-50
2023/10/29 11:54:22;;;;;;;6.73;4.87;;;;;;;10.26;100.00;96901.34;6225940;28;20215;-51
2023/10/29 11:57:25;;;;;;;5.53;4.30;;;;;;;10.32;100.00;96892.31;6228171;28;20207;-50
2023/10/29 12:00:40;;;;;;;4.87;4.03;;;;;;;10.51;100.00;96904.09;6212446;28;20241;-51
2023/10/29 12:03:50;;;;;;;5.77;4.40;;;;;;;10.66;100.00;96906.03;6235279;28;20676;-51
2023/10/29 12:06:54;;;;;;;4.73;4.33;;;;;;;10.81;100.00;96921.25;6219388;28;20764;-49
2023/10/29 12:10:06;;;;;;;5.33;4.83;;;;;;;10.86;100.00;96899.97;6224928;28;20198;-50
2023/10/29 12:13:08;;;;;;;7.43;4.43;;;;;;;11.00;100.00;96910.94;6228915;28;20750;-53
2023/10/29 12:16:12;;;;;;;4.23;3.60;;;;;;;10.95;100.00;96877.06;6228088;28;20192;-52
2023/10/29 12:19:14;;;;;;;8.97;4.00;;;;;;;11.10;100.00;96886.97;6220432;28;20203;-50
2023/10/29 12:22:21;;;;;;;5.60;3.70;;;;;;;11.18;100.00;96891.78;6230689;28;20188;-49
2023/10/29 12:25:25;;;;;;;4.40;4.00;;;;;;;11.32;100.00;96898.16;6233333;28;20223;-49
2023/10/29 12:28:28;;;;;;;4.20;3.50;;;;;;;11.41;100.00;96890.44;6223972;28;20193;-53
2023/10/29 12:31:31;;;;;;;4.93;3.87;;;;;;;11.50;100.00;96867.50;6220673;28;20221;-50
2023/10/29 12:34:59;;;;;;;7.73;4.27;;;;;;;11.58;100.00;96858.19;6233438;28;20599;-49
2023/10/29 12:38:01;;;;;;;6.13;3.87;;;;;;;11.62;100.00;96860.06;6228721;28;20220;-52
2023/10/29 12:41:08;;;;;;;5.23;3.13;;;;;;;11.65;100.00;96856.03;6222972;28;20200;-51
2023/10/29 12:44:16;;;;;;;4.90;3.10;;;;;;;11.71;100.00;96856.81;6225603;28;20222;-52
2023/10/29 12:47:18;;;;;;;4.10;3.00;;;;;;;11.72;100.00;96850.41;6229479;28;20286;-51
2023/10/29 12:50:20;;;;;;;3.97;2.53;;;;;;;11.76;100.00;96857.63;6222986;28;20242;-51
2023/10/29 12:53:28;;;;;;;4.10;2.47;;;;;;;11.78;100.00;96846.69;6225474;28;20196;-52
2023/10/29 12:56:30;;;;;;;4.17;2.60;;;;;;;11.81;100.00;96854.13;6222893;28;20249;-51
2023/10/29 12:59:33;;;;;;;5.30;2.77;;;;;;;11.83;100.00;96862.72;6217477;28;20792;-53
2023/10/29 13:02:35;;;;;;;2.40;2.20;;;;;;;11.84;100.00;96867.78;6226190;28;20196;-54
2023/10/29 13:05:37;;;;;;;7.77;2.67;;;;;;;11.83;100.00;96868.84;6236323;28;20759;-56
2023/10/29 13:08:40;;;;;;;4.40;2.80;;;;;;;11.83;100.00;96871.53;6203614;28;20253;-55
2023/10/29 13:11:43;;;;;;;4.23;2.40;;;;;;;11.82;100.00;96861.94;6209101;28;20232;-55
2023/10/29 13:14:46;;;;;;;2.87;2.53;;;;;;;11.85;100.00;96866.72;6222993;28;20699;-55
2023/10/29 13:17:49;;;;;;;2.20;2.00;;;;;;;11.89;100.00;96869.66;6226804;28;20280;-55
2023/10/29 13:20:58;;;;;;;2.90;2.27;;;;;;;11.93;100.00;96856.56;6223322;28;20287;-55
2023/10/29 13:24:00;;;;;;;3.23;2.20;;;;;;;11.94;100.00;96858.16;6228643;28;20712;-55
2023/10/29 13:27:02;;;;;;;3.03;2.23;;;;;;;11.95;100.00;96857.88;6223690;28;20200;-56
2023/10/29 13:30:07;;;;;;;3.03;2.10;;;;;;;12.01;100.00;96853.31;6225726;28;20199;-55
2023/10/29 13:33:09;;;;;;;2.67;2.30;;;;;;;12.03;100.00;96849.34;6208274;28;20265;-56
2023/10/29 13:36:12;;;;;;;2.60;2.40;;;;;;;11.99;100.00;96848.28;6233526;28;20565;-56
2023/10/29 13:39:15;;;;;;;4.47;2.27;;;;;;;12.03;100.00;96849.34;6224309;28;20205;-53
2023/10/29 13:42:22;;;;;;;3.13;1.90;;;;;;;12.07;100.00;96847.72;6220878;28;20201;-52
2023/10/29 13:45:24;;;;;;;5.53;1.93;;;;;;;12.09;100.00;96844.78;6224859;28;20198;-53
2023/10/29 13:48:27;;;;;;;2.43;1.77;;;;;;;11.99;100.00;96821.56;6227335;28;20620;-52
2023/10/29 13:51:29;;;;;;;1.60;1.50;;;;;;;12.10;100.00;96833.81;6227136;28;20215;-52
2023/10/29 13:54:31;;;;;;;1.83;1.50;;;;;;;12.11;100.00;96827.41;6228340;28;20207;-53
2023/10/29 13:57:34;;;;;;;3.30;1.77;;;;;;;12.11;100.00;96814.03;6218690;28;20211;-53
2023/10/29 14:00:36;;;;;;;4.57;1.80;;;;;;;12.10;100.00;96830.34;6225212;28;20265;-51
2023/10/29 14:03:38;;;;;;;1.80;1.63;;;;;;;12.07;100.00;96831.72;6217906;28;20833;-52
2023/10/29 14:06:41;;;;;;;3.00;1.80;;;;;;;12.08;100.00;96822.63;6233211;28;20200;-53
2023/10/29 14:09:44;;;;;;;2.03;1.80;;;;;;;12.07;100.00;96826.38;6228010;28;20204;-50
2023/10/29 14:12:46;;;;;;;2.17;1.50;;;;;;;12.06;100.00;96819.41;6224239;28;20196;-51
2023/10/29 14:15:48;;;;;;;2.37;1.80;;;;;;;12.05;100.00;96817.81;6227507;28;20273;-57
2023/10/29 14:18:51;;;;;;;2.10;1.73;;;;;;;12.04;100.00;96821.56;6227577;28;20209;-55